sensor_id;sensor_type;location;lat;lon;timestamp;P1;durP1;ratioP1;P2;durP2;ratioP2
70545;SDS011;58098;51.680;5.134;2023-05-25T00:01:30;13.50;;;5.13;;
70545;SDS011;58098;51.680;5.134;2023-05-25T00:03:58;16.65;;;4.93;;
70545;SDS011;58098;51.680;5.134;2023-05-25T00:06:24;14.25;;;4.95;;
70545;SDS011;58098;51.680;5.134;2023-05-25T00:08:50;16.23;;;5.73;;
70545;SDS011;58098;51.680;5.134;2023-05-25T00:11:19;16.70;;;5.50;;
70545;SDS011;58098;51.680;5.134;2023-05-25T00:13:47;21.00;;;5.93;;
70545;SDS011;58098;51.680;5.134;2023-05-25T00:16:12;16.27;;;5.47;;
70545;SDS011;58098;51.680;5.134;2023-05-25T00:18:38;11.27;;;5.07;;
70545;SDS011;58098;51.680;5.134;2023-05-25T00:21:03;15.50;;;5.05;;
70545;SDS011;58098;51.680;5.134;2023-05-25T00:23:32;19.10;;;5.90;;
70545;SDS011;58098;51.680;5.134;2023-05-25T00:25:57;13.95;;;5.25;;
70545;SDS011;58098;51.680;5.134;2023-05-25T00:28:23;15.73;;;5.37;;
70545;SDS011;58098;51.680;5.134;2023-05-25T00:30:48;16.10;;;6.17;;
70545;SDS011;58098;51.680;5.134;2023-05-25T00:33:14;15.57;;;5.93;;
70545;SDS011;58098;51.680;5.134;2023-05-25T00:35:40;12.57;;;5.13;;
70545;SDS011;58098;51.680;5.134;2023-05-25T00:38:16;17.35;;;5.38;;
70545;SDS011;58098;51.680;5.134;2023-05-25T00:40:42;18.92;;;6.00;;
70545;SDS011;58098;51.680;5.134;2023-05-25T00:43:08;17.40;;;6.33;;
70545;SDS011;58098;51.680;5.134;2023-05-25T00:45:34;16.73;;;5.90;;
70545;SDS011;58098;51.680;5.134;2023-05-25T00:48:00;17.90;;;6.50;;
70545;SDS011;58098;51.680;5.134;2023-05-25T00:53:04;13.48;;;6.30;;
70545;SDS011;58098;51.680;5.134;2023-05-25T00:55:32;15.17;;;5.97;;
70545;SDS011;58098;51.680;5.134;2023-05-25T00:58:02;17.70;;;6.03;;
70545;SDS011;58098;51.680;5.134;2023-05-25T01:00:29;16.33;;;7.00;;
70545;SDS011;58098;51.680;5.134;2023-05-25T01:02:57;23.67;;;6.80;;
70545;SDS011;58098;51.680;5.134;2023-05-25T01:05:24;18.97;;;6.73;;
70545;SDS011;58098;51.680;5.134;2023-05-25T01:07:53;14.57;;;5.95;;
70545;SDS011;58098;51.680;5.134;2023-05-25T01:10:21;16.77;;;6.43;;
70545;SDS011;58098;51.680;5.134;2023-05-25T01:12:48;16.65;;;6.20;;
70545;SDS011;58098;51.680;5.134;2023-05-25T01:15:17;18.58;;;7.03;;
70545;SDS011;58098;51.680;5.134;2023-05-25T01:17:44;14.90;;;6.30;;
70545;SDS011;58098;51.680;5.134;2023-05-25T01:20:09;16.60;;;6.85;;
70545;SDS011;58098;51.680;5.134;2023-05-25T01:25:42;18.75;;;6.88;;
70545;SDS011;58098;51.680;5.134;2023-05-25T01:30:43;22.00;;;7.25;;
70545;SDS011;58098;51.680;5.134;2023-05-25T01:33:11;23.63;;;7.90;;
70545;SDS011;58098;51.680;5.134;2023-05-25T01:35:37;23.70;;;8.67;;
70545;SDS011;58098;51.680;5.134;2023-05-25T01:38:04;20.73;;;7.28;;
70545;SDS011;58098;51.680;5.134;2023-05-25T01:40:29;16.50;;;7.10;;
70545;SDS011;58098;51.680;5.134;2023-05-25T01:42:55;19.37;;;7.10;;
70545;SDS011;58098;51.680;5.134;2023-05-25T01:45:20;20.27;;;7.53;;
70545;SDS011;58098;51.680;5.134;2023-05-25T01:47:56;20.60;;;7.53;;
70545;SDS011;58098;51.680;5.134;2023-05-25T01:53:15;15.02;;;7.32;;
70545;SDS011;58098;51.680;5.134;2023-05-25T01:56:04;19.67;;;7.65;;
70545;SDS011;58098;51.680;5.134;2023-05-25T01:58:38;22.58;;;7.82;;
70545;SDS011;58098;51.680;5.134;2023-05-25T02:01:07;19.77;;;7.87;;
70545;SDS011;58098;51.680;5.134;2023-05-25T02:03:33;17.65;;;7.35;;
70545;SDS011;58098;51.680;5.134;2023-05-25T02:05:58;16.80;;;8.23;;
70545;SDS011;58098;51.680;5.134;2023-05-25T02:08:24;14.90;;;7.03;;
70545;SDS011;58098;51.680;5.134;2023-05-25T02:10:49;19.40;;;7.63;;
70545;SDS011;58098;51.680;5.134;2023-05-25T02:13:15;20.93;;;7.87;;
70545;SDS011;58098;51.680;5.134;2023-05-25T02:15:40;22.73;;;8.13;;
70545;SDS011;58098;51.680;5.134;2023-05-25T02:18:05;19.87;;;7.30;;
70545;SDS011;58098;51.680;5.134;2023-05-25T02:20:32;12.30;;;6.68;;
70545;SDS011;58098;51.680;5.134;2023-05-25T02:22:58;18.20;;;6.95;;
70545;SDS011;58098;51.680;5.134;2023-05-25T02:25:23;20.13;;;6.47;;
70545;SDS011;58098;51.680;5.134;2023-05-25T02:27:48;19.80;;;6.97;;
70545;SDS011;58098;51.680;5.134;2023-05-25T02:30:14;18.87;;;6.37;;
70545;SDS011;58098;51.680;5.134;2023-05-25T02:32:39;23.87;;;7.10;;
70545;SDS011;58098;51.680;5.134;2023-05-25T02:35:05;19.43;;;7.00;;
70545;SDS011;58098;51.680;5.134;2023-05-25T02:37:31;20.40;;;7.28;;
70545;SDS011;58098;51.680;5.134;2023-05-25T02:39:56;16.83;;;7.20;;
70545;SDS011;58098;51.680;5.134;2023-05-25T02:42:22;18.57;;;7.23;;
70545;SDS011;58098;51.680;5.134;2023-05-25T02:44:47;19.37;;;7.73;;
70545;SDS011;58098;51.680;5.134;2023-05-25T02:47:15;18.27;;;7.27;;
70545;SDS011;58098;51.680;5.134;2023-05-25T02:49:42;16.97;;;6.77;;
70545;SDS011;58098;51.680;5.134;2023-05-25T02:52:08;17.48;;;7.00;;
70545;SDS011;58098;51.680;5.134;2023-05-25T02:54:33;16.60;;;7.23;;
70545;SDS011;58098;51.680;5.134;2023-05-25T02:56:59;21.53;;;7.50;;
70545;SDS011;58098;51.680;5.134;2023-05-25T02:59:26;17.48;;;6.55;;
70545;SDS011;58098;51.680;5.134;2023-05-25T03:01:52;17.13;;;7.40;;
70545;SDS011;58098;51.680;5.134;2023-05-25T03:04:17;16.57;;;6.97;;
70545;SDS011;58098;51.680;5.134;2023-05-25T03:06:42;15.77;;;7.07;;
70545;SDS011;58098;51.680;5.134;2023-05-25T03:09:09;21.43;;;7.57;;
70545;SDS011;58098;51.680;5.134;2023-05-25T03:11:34;21.02;;;7.13;;
70545;SDS011;58098;51.680;5.134;2023-05-25T03:14:00;13.27;;;6.47;;
70545;SDS011;58098;51.680;5.134;2023-05-25T03:16:25;20.53;;;8.47;;
70545;SDS011;58098;51.680;5.134;2023-05-25T03:18:52;20.35;;;7.25;;
70545;SDS011;58098;51.680;5.134;2023-05-25T03:21:17;25.10;;;8.23;;
70545;SDS011;58098;51.680;5.134;2023-05-25T03:23:43;17.80;;;8.23;;
70545;SDS011;58098;51.680;5.134;2023-05-25T03:26:08;19.90;;;8.17;;
70545;SDS011;58098;51.680;5.134;2023-05-25T03:28:33;20.23;;;8.00;;
70545;SDS011;58098;51.680;5.134;2023-05-25T03:30:59;18.23;;;7.30;;
70545;SDS011;58098;51.680;5.134;2023-05-25T03:33:25;20.67;;;8.68;;
70545;SDS011;58098;51.680;5.134;2023-05-25T03:35:50;20.83;;;7.33;;
70545;SDS011;58098;51.680;5.134;2023-05-25T03:38:15;15.53;;;7.73;;
70545;SDS011;58098;51.680;5.134;2023-05-25T03:40:41;20.40;;;8.10;;
70545;SDS011;58098;51.680;5.134;2023-05-25T03:43:06;20.03;;;8.30;;
70545;SDS011;58098;51.680;5.134;2023-05-25T03:45:31;17.53;;;7.77;;
70545;SDS011;58098;51.680;5.134;2023-05-25T03:47:57;18.40;;;8.40;;
70545;SDS011;58098;51.680;5.134;2023-05-25T03:50:22;15.37;;;8.00;;
70545;SDS011;58098;51.680;5.134;2023-05-25T03:52:47;17.13;;;7.50;;
70545;SDS011;58098;51.680;5.134;2023-05-25T03:55:13;19.70;;;8.83;;
70545;SDS011;58098;51.680;5.134;2023-05-25T03:57:40;20.13;;;8.40;;
70545;SDS011;58098;51.680;5.134;2023-05-25T04:00:06;22.10;;;8.68;;
70545;SDS011;58098;51.680;5.134;2023-05-25T04:02:33;20.70;;;9.80;;
70545;SDS011;58098;51.680;5.134;2023-05-25T04:04:59;21.80;;;8.90;;
70545;SDS011;58098;51.680;5.134;2023-05-25T04:07:24;19.57;;;8.27;;
70545;SDS011;58098;51.680;5.134;2023-05-25T04:09:51;17.83;;;9.38;;
70545;SDS011;58098;51.680;5.134;2023-05-25T04:12:17;18.83;;;9.30;;
70545;SDS011;58098;51.680;5.134;2023-05-25T04:14:42;20.60;;;9.38;;
70545;SDS011;58098;51.680;5.134;2023-05-25T04:17:08;20.33;;;8.67;;
70545;SDS011;58098;51.680;5.134;2023-05-25T04:19:33;16.87;;;9.40;;
70545;SDS011;58098;51.680;5.134;2023-05-25T04:21:59;20.90;;;9.18;;
70545;SDS011;58098;51.680;5.134;2023-05-25T04:24:24;21.87;;;8.90;;
70545;SDS011;58098;51.680;5.134;2023-05-25T04:26:50;18.97;;;8.83;;
70545;SDS011;58098;51.680;5.134;2023-05-25T04:29:15;23.03;;;9.43;;
70545;SDS011;58098;51.680;5.134;2023-05-25T04:31:41;20.00;;;8.25;;
70545;SDS011;58098;51.680;5.134;2023-05-25T04:34:09;23.17;;;8.20;;
70545;SDS011;58098;51.680;5.134;2023-05-25T04:36:35;21.20;;;7.87;;
70545;SDS011;58098;51.680;5.134;2023-05-25T04:39:02;24.63;;;8.23;;
70545;SDS011;58098;51.680;5.134;2023-05-25T04:41:28;22.42;;;8.68;;
70545;SDS011;58098;51.680;5.134;2023-05-25T04:43:57;18.23;;;7.70;;
70545;SDS011;58098;51.680;5.134;2023-05-25T04:46:23;15.73;;;8.30;;
70545;SDS011;58098;51.680;5.134;2023-05-25T04:48:49;21.27;;;8.47;;
70545;SDS011;58098;51.680;5.134;2023-05-25T04:51:14;22.70;;;8.32;;
70545;SDS011;58098;51.680;5.134;2023-05-25T04:53:40;17.50;;;8.07;;
70545;SDS011;58098;51.680;5.134;2023-05-25T04:56:05;23.63;;;7.83;;
70545;SDS011;58098;51.680;5.134;2023-05-25T04:58:30;18.77;;;8.20;;
70545;SDS011;58098;51.680;5.134;2023-05-25T05:00:57;21.63;;;8.27;;
70545;SDS011;58098;51.680;5.134;2023-05-25T05:03:23;17.60;;;8.60;;
70545;SDS011;58098;51.680;5.134;2023-05-25T05:05:48;20.77;;;8.23;;
70545;SDS011;58098;51.680;5.134;2023-05-25T05:08:14;18.77;;;7.83;;
70545;SDS011;58098;51.680;5.134;2023-05-25T05:10:39;18.47;;;8.33;;
70545;SDS011;58098;51.680;5.134;2023-05-25T05:13:04;19.27;;;8.37;;
70545;SDS011;58098;51.680;5.134;2023-05-25T05:15:30;18.87;;;6.93;;
70545;SDS011;58098;51.680;5.134;2023-05-25T05:17:55;17.35;;;8.00;;
70545;SDS011;58098;51.680;5.134;2023-05-25T05:20:20;19.73;;;7.77;;
70545;SDS011;58098;51.680;5.134;2023-05-25T05:22:46;16.60;;;8.00;;
70545;SDS011;58098;51.680;5.134;2023-05-25T05:25:11;20.97;;;8.40;;
70545;SDS011;58098;51.680;5.134;2023-05-25T05:27:37;16.20;;;6.97;;
70545;SDS011;58098;51.680;5.134;2023-05-25T05:30:02;17.70;;;6.87;;
70545;SDS011;58098;51.680;5.134;2023-05-25T05:32:28;19.20;;;6.63;;
70545;SDS011;58098;51.680;5.134;2023-05-25T05:34:53;21.50;;;7.80;;
70545;SDS011;58098;51.680;5.134;2023-05-25T05:37:19;15.45;;;7.70;;
70545;SDS011;58098;51.680;5.134;2023-05-25T05:39:44;20.43;;;8.23;;
70545;SDS011;58098;51.680;5.134;2023-05-25T05:42:09;21.97;;;8.97;;
70545;SDS011;58098;51.680;5.134;2023-05-25T05:44:35;15.07;;;8.10;;
70545;SDS011;58098;51.680;5.134;2023-05-25T05:47:00;20.50;;;8.13;;
70545;SDS011;58098;51.680;5.134;2023-05-25T05:49:26;19.40;;;7.47;;
70545;SDS011;58098;51.680;5.134;2023-05-25T05:51:52;23.15;;;8.60;;
70545;SDS011;58098;51.680;5.134;2023-05-25T05:54:18;21.33;;;7.73;;
70545;SDS011;58098;51.680;5.134;2023-05-25T05:56:43;20.43;;;7.80;;
70545;SDS011;58098;51.680;5.134;2023-05-25T05:59:09;22.10;;;7.27;;
70545;SDS011;58098;51.680;5.134;2023-05-25T06:01:35;19.35;;;7.35;;
70545;SDS011;58098;51.680;5.134;2023-05-25T06:04:00;16.60;;;7.33;;
70545;SDS011;58098;51.680;5.134;2023-05-25T06:06:26;20.10;;;7.63;;
70545;SDS011;58098;51.680;5.134;2023-05-25T06:08:51;21.50;;;7.60;;
70545;SDS011;58098;51.680;5.134;2023-05-25T06:11:17;17.90;;;7.53;;
70545;SDS011;58098;51.680;5.134;2023-05-25T06:13:42;21.13;;;7.37;;
70545;SDS011;58098;51.680;5.134;2023-05-25T06:16:07;17.27;;;5.60;;
70545;SDS011;58098;51.680;5.134;2023-05-25T06:18:32;21.73;;;7.17;;
70545;SDS011;58098;51.680;5.134;2023-05-25T06:20:59;20.63;;;6.80;;
70545;SDS011;58098;51.680;5.134;2023-05-25T06:23:25;20.85;;;7.35;;
70545;SDS011;58098;51.680;5.134;2023-05-25T06:25:51;23.50;;;7.20;;
70545;SDS011;58098;51.680;5.134;2023-05-25T06:28:17;17.75;;;7.00;;
70545;SDS011;58098;51.680;5.134;2023-05-25T06:30:42;21.90;;;7.27;;
70545;SDS011;58098;51.680;5.134;2023-05-25T06:33:07;22.90;;;6.40;;
70545;SDS011;58098;51.680;5.134;2023-05-25T06:35:32;22.07;;;7.67;;
70545;SDS011;58098;51.680;5.134;2023-05-25T06:37:58;27.77;;;8.03;;
70545;SDS011;58098;51.680;5.134;2023-05-25T06:40:23;22.20;;;7.15;;
70545;SDS011;58098;51.680;5.134;2023-05-25T06:42:48;16.90;;;6.53;;
70545;SDS011;58098;51.680;5.134;2023-05-25T06:45:14;19.43;;;7.43;;
70545;SDS011;58098;51.680;5.134;2023-05-25T06:47:40;18.00;;;7.28;;
70545;SDS011;58098;51.680;5.134;2023-05-25T06:50:06;16.90;;;6.13;;
70545;SDS011;58098;51.680;5.134;2023-05-25T06:52:32;21.42;;;7.18;;
70545;SDS011;58098;51.680;5.134;2023-05-25T06:54:57;15.30;;;6.93;;
70545;SDS011;58098;51.680;5.134;2023-05-25T06:57:22;17.87;;;6.53;;
70545;SDS011;58098;51.680;5.134;2023-05-25T06:59:48;16.03;;;6.03;;
70545;SDS011;58098;51.680;5.134;2023-05-25T07:02:13;14.95;;;6.30;;
70545;SDS011;58098;51.680;5.134;2023-05-25T07:04:39;19.23;;;6.80;;
70545;SDS011;58098;51.680;5.134;2023-05-25T07:07:04;23.60;;;6.27;;
70545;SDS011;58098;51.680;5.134;2023-05-25T07:09:30;14.70;;;6.47;;
70545;SDS011;58098;51.680;5.134;2023-05-25T07:11:56;15.93;;;5.87;;
70545;SDS011;58098;51.680;5.134;2023-05-25T07:14:21;16.37;;;7.30;;
70545;SDS011;58098;51.680;5.134;2023-05-25T07:16:46;16.35;;;6.55;;
70545;SDS011;58098;51.680;5.134;2023-05-25T07:19:12;17.53;;;6.97;;
70545;SDS011;58098;51.680;5.134;2023-05-25T07:21:37;19.77;;;7.80;;
70545;SDS011;58098;51.680;5.134;2023-05-25T07:24:03;17.10;;;6.50;;
70545;SDS011;58098;51.680;5.134;2023-05-25T07:26:31;20.40;;;6.32;;
70545;SDS011;58098;51.680;5.134;2023-05-25T07:28:58;12.80;;;6.13;;
70545;SDS011;58098;51.680;5.134;2023-05-25T07:31:23;18.27;;;5.57;;
70545;SDS011;58098;51.680;5.134;2023-05-25T07:33:49;16.20;;;5.63;;
70545;SDS011;58098;51.680;5.134;2023-05-25T07:36:14;16.30;;;6.73;;
70545;SDS011;58098;51.680;5.134;2023-05-25T07:38:40;19.52;;;5.95;;
70545;SDS011;58098;51.680;5.134;2023-05-25T07:41:06;16.07;;;5.53;;
70545;SDS011;58098;51.680;5.134;2023-05-25T07:43:31;16.93;;;5.80;;
70545;SDS011;58098;51.680;5.134;2023-05-25T07:45:56;12.93;;;4.70;;
70545;SDS011;58098;51.680;5.134;2023-05-25T07:48:22;14.60;;;5.20;;
70545;SDS011;58098;51.680;5.134;2023-05-25T07:50:47;12.77;;;5.17;;
70545;SDS011;58098;51.680;5.134;2023-05-25T07:53:12;13.10;;;4.70;;
70545;SDS011;58098;51.680;5.134;2023-05-25T07:55:38;13.97;;;5.47;;
70545;SDS011;58098;51.680;5.134;2023-05-25T07:58:03;18.97;;;5.03;;
70545;SDS011;58098;51.680;5.134;2023-05-25T08:00:31;22.88;;;6.35;;
70545;SDS011;58098;51.680;5.134;2023-05-25T08:02:56;17.70;;;5.70;;
70545;SDS011;58098;51.680;5.134;2023-05-25T08:05:22;19.37;;;5.60;;
70545;SDS011;58098;51.680;5.134;2023-05-25T08:07:47;16.40;;;5.80;;
70545;SDS011;58098;51.680;5.134;2023-05-25T08:10:12;17.43;;;5.70;;
70545;SDS011;58098;51.680;5.134;2023-05-25T08:12:38;15.05;;;6.07;;
70545;SDS011;58098;51.680;5.134;2023-05-25T08:15:03;14.70;;;5.70;;
70545;SDS011;58098;51.680;5.134;2023-05-25T08:17:29;16.13;;;4.95;;
70545;SDS011;58098;51.680;5.134;2023-05-25T08:19:54;13.03;;;5.07;;
70545;SDS011;58098;51.680;5.134;2023-05-25T08:22:20;16.80;;;5.40;;
70545;SDS011;58098;51.680;5.134;2023-05-25T08:24:46;13.77;;;5.27;;
70545;SDS011;58098;51.680;5.134;2023-05-25T08:27:11;15.57;;;5.38;;
70545;SDS011;58098;51.680;5.134;2023-05-25T08:29:36;13.97;;;4.97;;
70545;SDS011;58098;51.680;5.134;2023-05-25T08:32:02;14.17;;;4.70;;
70545;SDS011;58098;51.680;5.134;2023-05-25T08:34:27;16.13;;;4.83;;
70545;SDS011;58098;51.680;5.134;2023-05-25T08:36:53;11.43;;;4.57;;
70545;SDS011;58098;51.680;5.134;2023-05-25T08:39:19;16.07;;;4.67;;
70545;SDS011;58098;51.680;5.134;2023-05-25T08:41:44;15.23;;;5.07;;
70545;SDS011;58098;51.680;5.134;2023-05-25T08:44:09;14.50;;;4.90;;
70545;SDS011;58098;51.680;5.134;2023-05-25T08:46:35;14.03;;;4.47;;
70545;SDS011;58098;51.680;5.134;2023-05-25T08:49:07;18.38;;;4.82;;
70545;SDS011;58098;51.680;5.134;2023-05-25T08:51:34;15.50;;;4.43;;
70545;SDS011;58098;51.680;5.134;2023-05-25T08:54:06;13.55;;;4.22;;
70545;SDS011;58098;51.680;5.134;2023-05-25T08:56:35;12.30;;;4.28;;
70545;SDS011;58098;51.680;5.134;2023-05-25T08:59:07;13.00;;;3.85;;
70545;SDS011;58098;51.680;5.134;2023-05-25T09:01:42;17.15;;;4.38;;
70545;SDS011;58098;51.680;5.134;2023-05-25T09:04:10;15.17;;;4.60;;
70545;SDS011;58098;51.680;5.134;2023-05-25T09:06:38;15.38;;;4.40;;
70545;SDS011;58098;51.680;5.134;2023-05-25T09:09:04;15.10;;;4.28;;
70545;SDS011;58098;51.680;5.134;2023-05-25T09:11:29;12.40;;;4.22;;
70545;SDS011;58098;51.680;5.134;2023-05-25T09:13:55;15.30;;;3.97;;
70545;SDS011;58098;51.680;5.134;2023-05-25T09:16:21;11.05;;;4.28;;
70545;SDS011;58098;51.680;5.134;2023-05-25T09:18:47;12.52;;;3.83;;
70545;SDS011;58098;51.680;5.134;2023-05-25T09:21:13;12.90;;;4.33;;
70545;SDS011;58098;51.680;5.134;2023-05-25T09:23:38;15.97;;;4.80;;
70545;SDS011;58098;51.680;5.134;2023-05-25T09:26:04;14.35;;;3.92;;
70545;SDS011;58098;51.680;5.134;2023-05-25T09:28:30;12.63;;;4.50;;
70545;SDS011;58098;51.680;5.134;2023-05-25T09:30:55;15.70;;;4.07;;
70545;SDS011;58098;51.680;5.134;2023-05-25T09:33:21;13.70;;;4.33;;
70545;SDS011;58098;51.680;5.134;2023-05-25T09:35:46;14.40;;;3.90;;
70545;SDS011;58098;51.680;5.134;2023-05-25T09:38:13;12.00;;;3.72;;
70545;SDS011;58098;51.680;5.134;2023-05-25T09:40:39;10.57;;;4.10;;
70545;SDS011;58098;51.680;5.134;2023-05-25T09:43:05;12.67;;;3.73;;
70545;SDS011;58098;51.680;5.134;2023-05-25T09:45:30;13.68;;;3.92;;
70545;SDS011;58098;51.680;5.134;2023-05-25T09:47:56;10.97;;;3.73;;
70545;SDS011;58098;51.680;5.134;2023-05-25T09:50:22;12.35;;;3.60;;
70545;SDS011;58098;51.680;5.134;2023-05-25T09:52:47;10.03;;;3.87;;
70545;SDS011;58098;51.680;5.134;2023-05-25T09:55:13;14.50;;;3.97;;
70545;SDS011;58098;51.680;5.134;2023-05-25T09:57:40;12.10;;;3.67;;
70545;SDS011;58098;51.680;5.134;2023-05-25T10:00:05;12.65;;;4.18;;
70545;SDS011;58098;51.680;5.134;2023-05-25T10:02:32;12.60;;;4.45;;
70545;SDS011;58098;51.680;5.134;2023-05-25T10:04:57;14.93;;;3.97;;
70545;SDS011;58098;51.680;5.134;2023-05-25T10:07:23;11.90;;;3.80;;
70545;SDS011;58098;51.680;5.134;2023-05-25T10:09:50;13.52;;;4.80;;
70545;SDS011;58098;51.680;5.134;2023-05-25T10:12:18;12.52;;;3.95;;
70545;SDS011;58098;51.680;5.134;2023-05-25T10:14:48;14.00;;;3.80;;
70545;SDS011;58098;51.680;5.134;2023-05-25T10:17:17;12.07;;;4.10;;
70545;SDS011;58098;51.680;5.134;2023-05-25T10:28:03;9.10;;;3.40;;
70545;SDS011;58098;51.680;5.134;2023-05-25T10:30:35;15.35;;;4.65;;
70545;SDS011;58098;51.680;5.134;2023-05-25T10:33:03;8.10;;;3.47;;
70545;SDS011;58098;51.680;5.134;2023-05-25T10:35:29;10.88;;;3.92;;
70545;SDS011;58098;51.680;5.134;2023-05-25T10:37:55;12.40;;;4.33;;
70545;SDS011;58098;51.680;5.134;2023-05-25T10:40:22;12.13;;;4.30;;
70545;SDS011;58098;51.680;5.134;2023-05-25T10:42:51;11.65;;;3.97;;
70545;SDS011;58098;51.680;5.134;2023-05-25T10:45:16;11.47;;;4.27;;
70545;SDS011;58098;51.680;5.134;2023-05-25T10:47:42;13.95;;;4.57;;
70545;SDS011;58098;51.680;5.134;2023-05-25T10:50:20;13.88;;;4.35;;
70545;SDS011;58098;51.680;5.134;2023-05-25T10:52:58;14.35;;;4.13;;
70545;SDS011;58098;51.680;5.134;2023-05-25T10:55:25;13.15;;;4.50;;
70545;SDS011;58098;51.680;5.134;2023-05-25T10:58:09;9.60;;;3.83;;
70545;SDS011;58098;51.680;5.134;2023-05-25T11:00:36;13.65;;;4.03;;
70545;SDS011;58098;51.680;5.134;2023-05-25T11:03:02;12.43;;;4.32;;
70545;SDS011;58098;51.680;5.134;2023-05-25T11:07:54;10.47;;;4.07;;
70545;SDS011;58098;51.680;5.134;2023-05-25T11:18:50;12.38;;;4.47;;
70545;SDS011;58098;51.680;5.134;2023-05-25T11:21:21;9.32;;;4.25;;
70545;SDS011;58098;51.680;5.134;2023-05-25T11:24:02;12.18;;;4.45;;
70545;SDS011;58098;51.680;5.134;2023-05-25T11:26:35;12.32;;;3.97;;
70545;SDS011;58098;51.680;5.134;2023-05-25T11:29:10;12.03;;;3.70;;
70545;SDS011;58098;51.680;5.134;2023-05-25T11:31:37;14.55;;;4.30;;
70545;SDS011;58098;51.680;5.134;2023-05-25T11:34:03;10.65;;;4.20;;
70545;SDS011;58098;51.680;5.134;2023-05-25T11:36:29;13.30;;;4.43;;
70545;SDS011;58098;51.680;5.134;2023-05-25T11:38:59;10.43;;;3.85;;
70545;SDS011;58098;51.680;5.134;2023-05-25T11:41:26;17.63;;;4.40;;
70545;SDS011;58098;51.680;5.134;2023-05-25T11:43:53;8.73;;;3.78;;
70545;SDS011;58098;51.680;5.134;2023-05-25T11:46:20;11.95;;;4.20;;
70545;SDS011;58098;51.680;5.134;2023-05-25T11:48:49;8.03;;;4.00;;
70545;SDS011;58098;51.680;5.134;2023-05-25T11:51:25;9.73;;;3.90;;
70545;SDS011;58098;51.680;5.134;2023-05-25T11:53:52;10.02;;;4.00;;
70545;SDS011;58098;51.680;5.134;2023-05-25T11:56:18;7.70;;;4.20;;
70545;SDS011;58098;51.680;5.134;2023-05-25T11:58:45;9.48;;;3.85;;
70545;SDS011;58098;51.680;5.134;2023-05-25T12:01:17;10.95;;;4.30;;
70545;SDS011;58098;51.680;5.134;2023-05-25T12:03:46;12.93;;;4.50;;
70545;SDS011;58098;51.680;5.134;2023-05-25T12:06:29;11.43;;;4.55;;
70545;SDS011;58098;51.680;5.134;2023-05-25T12:08:57;12.60;;;4.30;;
70545;SDS011;58098;51.680;5.134;2023-05-25T12:11:26;13.48;;;4.22;;
70545;SDS011;58098;51.680;5.134;2023-05-25T12:13:53;12.65;;;4.30;;
70545;SDS011;58098;51.680;5.134;2023-05-25T12:16:19;9.88;;;4.40;;
70545;SDS011;58098;51.680;5.134;2023-05-25T12:18:45;12.37;;;4.50;;
70545;SDS011;58098;51.680;5.134;2023-05-25T12:21:10;15.02;;;4.88;;
70545;SDS011;58098;51.680;5.134;2023-05-25T12:23:36;11.70;;;4.33;;
70545;SDS011;58098;51.680;5.134;2023-05-25T12:26:08;11.90;;;4.57;;
70545;SDS011;58098;51.680;5.134;2023-05-25T12:28:37;11.75;;;4.47;;
70545;SDS011;58098;51.680;5.134;2023-05-25T12:31:21;10.33;;;4.53;;
70545;SDS011;58098;51.680;5.134;2023-05-25T12:34:30;12.13;;;4.40;;
70545;SDS011;58098;51.680;5.134;2023-05-25T12:39:06;10.37;;;4.23;;
70545;SDS011;58098;51.680;5.134;2023-05-25T12:41:45;9.30;;;4.22;;
70545;SDS011;58098;51.680;5.134;2023-05-25T12:44:15;10.20;;;4.55;;
70545;SDS011;58098;51.680;5.134;2023-05-25T12:46:42;12.67;;;4.23;;
70545;SDS011;58098;51.680;5.134;2023-05-25T12:51:55;10.15;;;4.30;;
70545;SDS011;58098;51.680;5.134;2023-05-25T12:54:34;8.77;;;3.63;;
70545;SDS011;58098;51.680;5.134;2023-05-25T12:57:09;9.32;;;3.90;;
70545;SDS011;58098;51.680;5.134;2023-05-25T12:59:36;10.43;;;4.50;;
70545;SDS011;58098;51.680;5.134;2023-05-25T13:02:04;9.50;;;3.97;;
70545;SDS011;58098;51.680;5.134;2023-05-25T13:04:31;9.85;;;4.07;;
70545;SDS011;58098;51.680;5.134;2023-05-25T13:06:56;10.87;;;4.10;;
70545;SDS011;58098;51.680;5.134;2023-05-25T13:09:22;10.73;;;4.10;;
70545;SDS011;58098;51.680;5.134;2023-05-25T13:11:52;10.73;;;4.22;;
70545;SDS011;58098;51.680;5.134;2023-05-25T13:14:24;7.23;;;3.73;;
70545;SDS011;58098;51.680;5.134;2023-05-25T13:16:50;12.18;;;4.10;;
70545;SDS011;58098;51.680;5.134;2023-05-25T13:19:17;8.70;;;3.63;;
70545;SDS011;58098;51.680;5.134;2023-05-25T13:21:43;8.27;;;3.50;;
70545;SDS011;58098;51.680;5.134;2023-05-25T13:24:08;9.27;;;4.13;;
70545;SDS011;58098;51.680;5.134;2023-05-25T13:26:34;11.47;;;3.80;;
70545;SDS011;58098;51.680;5.134;2023-05-25T13:28:59;11.47;;;3.83;;
70545;SDS011;58098;51.680;5.134;2023-05-25T13:31:24;8.82;;;3.60;;
70545;SDS011;58098;51.680;5.134;2023-05-25T13:33:50;7.57;;;3.70;;
70545;SDS011;58098;51.680;5.134;2023-05-25T13:36:15;10.40;;;4.00;;
70545;SDS011;58098;51.680;5.134;2023-05-25T13:38:40;7.73;;;4.23;;
70545;SDS011;58098;51.680;5.134;2023-05-25T13:41:06;7.17;;;3.90;;
70545;SDS011;58098;51.680;5.134;2023-05-25T13:43:31;8.20;;;4.30;;
70545;SDS011;58098;51.680;5.134;2023-05-25T13:45:56;12.77;;;4.10;;
70545;SDS011;58098;51.680;5.134;2023-05-25T13:48:23;6.47;;;3.57;;
70545;SDS011;58098;51.680;5.134;2023-05-25T13:50:48;8.73;;;4.05;;
70545;SDS011;58098;51.680;5.134;2023-05-25T13:53:14;9.63;;;4.27;;
70545;SDS011;58098;51.680;5.134;2023-05-25T13:55:39;8.60;;;4.32;;
70545;SDS011;58098;51.680;5.134;2023-05-25T13:58:05;11.23;;;4.50;;
70545;SDS011;58098;51.680;5.134;2023-05-25T14:00:31;10.98;;;4.55;;
70545;SDS011;58098;51.680;5.134;2023-05-25T14:02:56;10.47;;;3.57;;
70545;SDS011;58098;51.680;5.134;2023-05-25T14:05:22;13.27;;;4.47;;
70545;SDS011;58098;51.680;5.134;2023-05-25T14:07:47;10.63;;;3.93;;
70545;SDS011;58098;51.680;5.134;2023-05-25T14:10:12;8.57;;;3.92;;
70545;SDS011;58098;51.680;5.134;2023-05-25T14:12:38;10.93;;;3.90;;
70545;SDS011;58098;51.680;5.134;2023-05-25T14:15:04;10.95;;;4.03;;
70545;SDS011;58098;51.680;5.134;2023-05-25T14:17:30;8.52;;;4.20;;
70545;SDS011;58098;51.680;5.134;2023-05-25T14:19:56;11.00;;;4.53;;
70545;SDS011;58098;51.680;5.134;2023-05-25T14:22:22;10.50;;;4.43;;
70545;SDS011;58098;51.680;5.134;2023-05-25T14:24:47;7.63;;;4.23;;
70545;SDS011;58098;51.680;5.134;2023-05-25T14:27:13;9.67;;;4.60;;
70545;SDS011;58098;51.680;5.134;2023-05-25T14:29:40;10.00;;;4.07;;
70545;SDS011;58098;51.680;5.134;2023-05-25T14:32:05;10.77;;;4.23;;
70545;SDS011;58098;51.680;5.134;2023-05-25T14:34:30;14.43;;;4.53;;
70545;SDS011;58098;51.680;5.134;2023-05-25T14:36:55;11.30;;;3.90;;
70545;SDS011;58098;51.680;5.134;2023-05-25T14:39:21;12.60;;;4.97;;
70545;SDS011;58098;51.680;5.134;2023-05-25T14:41:46;9.90;;;3.97;;
70545;SDS011;58098;51.680;5.134;2023-05-25T14:44:11;9.40;;;4.30;;
70545;SDS011;58098;51.680;5.134;2023-05-25T14:46:37;11.63;;;4.27;;
70545;SDS011;58098;51.680;5.134;2023-05-25T14:49:02;10.80;;;3.90;;
70545;SDS011;58098;51.680;5.134;2023-05-25T14:51:27;16.87;;;4.60;;
70545;SDS011;58098;51.680;5.134;2023-05-25T14:53:52;15.10;;;4.40;;
70545;SDS011;58098;51.680;5.134;2023-05-25T14:56:18;13.90;;;3.97;;
70545;SDS011;58098;51.680;5.134;2023-05-25T14:58:45;11.75;;;4.05;;
70545;SDS011;58098;51.680;5.134;2023-05-25T15:01:11;12.68;;;4.28;;
70545;SDS011;58098;51.680;5.134;2023-05-25T15:03:36;15.03;;;4.27;;
70545;SDS011;58098;51.680;5.134;2023-05-25T15:06:01;10.50;;;4.30;;
70545;SDS011;58098;51.680;5.134;2023-05-25T15:08:27;11.33;;;4.17;;